Time;durP1;ratioP1;P1;durP2;ratioP2;P2;SDS_P1;SDS_P2;PMS_P1;PMS_P2;Temp;Humidity;BMP_temperature;BMP_pressure;BME280_temperature;BME280_humidity;BME280_pressure;Samples;Min_cycle;Max_cycle;Signal;HPM_P1;HPM_P2
2021/05/14 00:01:08;;;;;;;9.53;5.87;;;;;;;13.95;74.63;99562.84;1760630;81;21043;-64
2021/05/14 00:03:35;;;;;;;7.47;5.10;;;;;;;13.92;74.71;99566.61;1760560;81;21168;-64
2021/05/14 00:06:04;;;;;;;7.42;4.60;;;;;;;13.89;74.78;99559.66;1760498;81;21094;-65
2021/05/14 00:08:31;;;;;;;8.73;4.85;;;;;;;13.88;74.77;99561.28;1760445;81;21338;-65
2021/05/14 00:10:59;;;;;;;6.70;4.25;;;;;;;13.87;74.80;99559.61;1760544;81;21289;-65
2021/05/14 00:13:27;;;;;;;7.85;4.90;;;;;;;13.87;74.77;99560.98;1760599;81;21733;-65
2021/05/14 00:15:54;;;;;;;6.85;4.72;;;;;;;13.87;74.64;99563.20;1760462;81;21151;-65
2021/05/14 00:18:22;;;;;;;7.62;4.83;;;;;;;13.87;74.45;99567.87;1760569;81;21020;-64
2021/05/14 00:20:50;;;;;;;11.25;5.00;;;;;;;13.87;74.36;99563.20;1721546;82;21104;-67
2021/05/14 00:23:18;;;;;;;8.88;4.30;;;;;;;13.88;74.22;99555.23;1737241;82;21068;-65
2021/05/14 00:25:45;;;;;;;6.30;4.25;;;;;;;13.89;74.15;99551.95;1737187;82;21064;-65
2021/05/14 00:28:13;;;;;;;6.50;4.30;;;;;;;13.88;73.99;99558.53;1737189;82;21068;-66
2021/05/14 00:30:40;;;;;;;7.08;4.50;;;;;;;13.88;74.01;99550.27;1737125;82;21071;-65
2021/05/14 00:33:07;;;;;;;8.53;4.65;;;;;;;13.88;73.89;99548.35;1737237;82;21048;-65
2021/05/14 00:35:35;;;;;;;5.53;4.10;;;;;;;13.90;73.83;99548.11;1737195;82;21313;-66
2021/05/14 00:38:03;;;;;;;6.87;4.10;;;;;;;13.89;73.67;99556.08;1737115;82;21300;-65
2021/05/14 00:40:31;;;;;;;5.12;3.80;;;;;;;13.89;73.67;99547.81;1737242;82;21033;-66
2021/05/14 00:42:58;;;;;;;7.55;4.12;;;;;;;13.91;73.69;99542.91;1737094;82;21359;-66
2021/05/14 00:45:25;;;;;;;6.03;4.50;;;;;;;13.91;73.58;99538.77;1737405;82;21291;-64
2021/05/14 00:47:53;;;;;;;7.37;5.17;;;;;;;13.89;73.56;99547.28;1737061;82;21080;-65
2021/05/14 00:50:21;;;;;;;6.50;4.12;;;;;;;13.89;73.62;99540.93;1737149;82;21146;-65
2021/05/14 00:52:48;;;;;;;6.97;4.72;;;;;;;13.88;73.71;99540.63;1737189;82;21295;-65
2021/05/14 00:55:15;;;;;;;6.35;3.85;;;;;;;13.89;73.76;99540.93;1712508;82;21068;-65
2021/05/14 00:57:43;;;;;;;5.03;4.03;;;;;;;13.89;73.86;99539.02;1737169;82;21175;-65
2021/05/14 01:00:12;;;;;;;7.90;4.35;;;;;;;13.88;73.84;99539.25;1737172;82;21322;-65
2021/05/14 01:02:39;;;;;;;5.30;4.30;;;;;;;13.85;73.83;99537.82;1737107;82;21907;-65
2021/05/14 01:05:08;;;;;;;5.67;4.20;;;;;;;13.82;73.77;99541.59;1737026;82;21333;-65
2021/05/14 01:07:35;;;;;;;6.40;4.00;;;;;;;13.79;73.81;99540.16;1737123;82;21341;-65
2021/05/14 01:12:44;;;;;;;5.60;3.58;;;;;;;13.76;73.61;99536.50;1661531;85;21335;-64
2021/05/14 01:15:13;;;;;;;8.18;4.00;;;;;;;13.78;73.43;99533.52;1661067;86;21120;-65
2021/05/14 01:17:41;;;;;;;6.45;4.50;;;;;;;13.79;73.17;99540.69;1644228;87;21094;-66
2021/05/14 01:20:10;;;;;;;7.17;3.77;;;;;;;13.77;73.09;99538.72;1694424;84;21046;-65
2021/05/14 01:22:38;;;;;;;5.97;3.98;;;;;;;13.78;72.94;99539.86;1694415;84;21069;-66
2021/05/14 01:25:07;;;;;;;6.33;3.98;;;;;;;13.78;72.93;99537.11;1670561;84;21317;-64
2021/05/14 01:27:35;;;;;;;5.20;4.08;;;;;;;13.78;72.92;99530.76;1694489;84;21069;-64
2021/05/14 01:30:04;;;;;;;5.72;4.35;;;;;;;13.76;72.92;99531.54;1694573;84;21073;-64
2021/05/14 01:32:31;;;;;;;7.72;4.50;;;;;;;13.73;73.04;99537.52;1694480;84;21831;-65
2021/05/14 01:34:59;;;;;;;7.12;4.78;;;;;;;13.68;73.03;99534.11;1694420;84;21391;-64
2021/05/14 01:37:26;;;;;;;8.65;4.20;;;;;;;13.65;73.20;99534.56;1694605;84;21473;-64
2021/05/14 01:39:53;;;;;;;6.67;4.30;;;;;;;13.64;73.29;99535.09;1694497;84;21305;-65
2021/05/14 01:42:21;;;;;;;7.47;4.78;;;;;;;13.63;73.43;99533.42;1694452;84;21081;-64
2021/05/14 01:44:48;;;;;;;9.38;5.35;;;;;;;13.62;73.53;99535.87;1694516;84;21312;-63
2021/05/14 01:47:17;;;;;;;11.78;7.40;;;;;;;13.60;73.65;99529.77;1694411;84;21073;-65
2021/05/14 01:49:45;;;;;;;15.93;8.45;;;;;;;13.57;73.64;99530.78;1694493;84;21086;-65
2021/05/14 01:52:12;;;;;;;11.45;8.48;;;;;;;13.54;73.67;99525.76;1694469;84;21109;-64
2021/05/14 01:54:40;;;;;;;10.78;6.85;;;;;;;13.50;73.67;99521.27;1694722;84;21313;-65
2021/05/14 01:57:08;;;;;;;9.23;7.25;;;;;;;13.50;73.73;99518.52;1694423;84;21098;-64
2021/05/14 01:59:35;;;;;;;14.93;6.62;;;;;;;13.49;73.73;99518.22;1694519;84;21295;-65
2021/05/14 02:02:02;;;;;;;12.18;6.47;;;;;;;13.47;73.77;99520.37;1692636;84;21289;-65
2021/05/14 02:04:30;;;;;;;10.88;6.37;;;;;;;13.46;73.78;99524.73;1689036;85;21123;-64
2021/05/14 02:06:57;;;;;;;7.25;5.35;;;;;;;13.46;73.79;99527.48;1641201;87;21328;-65
2021/05/14 02:09:25;;;;;;;8.85;5.42;;;;;;;13.45;73.73;99523.90;1641250;87;21129;-65
2021/05/14 02:11:52;;;;;;;10.13;5.55;;;;;;;13.44;73.74;99521.38;1649476;86;21378;-65
2021/05/14 02:14:21;;;;;;;9.58;5.78;;;;;;;13.39;73.86;99524.84;1690779;85;21242;-65
2021/05/14 02:16:48;;;;;;;7.83;5.55;;;;;;;13.39;73.95;99522.09;1661402;86;21365;-65
2021/05/14 02:19:16;;;;;;;8.23;4.55;;;;;;;13.38;74.01;99516.83;1690809;85;21062;-65
2021/05/14 02:21:44;;;;;;;7.83;5.03;;;;;;;13.36;74.05;99523.11;1690677;85;21085;-65
2021/05/14 02:24:11;;;;;;;6.42;4.50;;;;;;;13.33;74.13;99517.55;1690731;85;21268;-65
2021/05/14 02:26:39;;;;;;;9.70;4.92;;;;;;;13.30;74.25;99513.36;1690825;85;21329;-65
2021/05/14 02:29:07;;;;;;;11.30;5.30;;;;;;;13.30;74.34;99520.23;1690783;85;21296;-65
2021/05/14 02:31:34;;;;;;;10.15;5.17;;;;;;;13.30;74.27;99519.39;1635424;87;21130;-65
2021/05/14 02:34:02;;;;;;;11.00;5.33;;;;;;;13.32;74.20;99521.37;1633942;87;21337;-64
2021/05/14 02:36:30;;;;;;;12.95;4.90;;;;;;;13.32;74.14;99513.12;1660959;85;21059;-64
2021/05/14 02:38:57;;;;;;;9.63;5.12;;;;;;;13.35;74.08;99515.39;1690812;85;21768;-65
2021/05/14 02:41:24;;;;;;;12.07;6.10;;;;;;;13.38;74.02;99512.70;1690694;85;21101;-64
2021/05/14 02:43:52;;;;;;;11.93;6.22;;;;;;;13.38;74.04;99508.04;1635306;87;21362;-64
2021/05/14 02:46:19;;;;;;;9.35;6.53;;;;;;;13.41;73.90;99512.23;1661459;86;21375;-65
2021/05/14 02:48:47;;;;;;;11.35;5.85;;;;;;;13.42;73.78;99498.23;1690841;85;21038;-64
2021/05/14 02:51:14;;;;;;;9.13;5.15;;;;;;;13.44;73.61;99505.71;1690670;85;21308;-65
2021/05/14 02:53:42;;;;;;;8.85;5.80;;;;;;;13.44;73.48;99501.58;1635436;87;21110;-65
2021/05/14 02:56:09;;;;;;;13.40;5.53;;;;;;;13.44;73.42;99498.83;1633947;87;21139;-65
2021/05/14 02:58:37;;;;;;;10.13;6.28;;;;;;;13.46;73.22;99502.72;1660884;86;21051;-65
2021/05/14 03:01:04;;;;;;;9.18;6.30;;;;;;;13.45;73.15;99500.51;1660827;86;21044;-64
2021/05/14 03:03:31;;;;;;;8.93;5.97;;;;;;;13.46;73.04;99499.97;1660790;86;21123;-65
2021/05/14 03:05:59;;;;;;;9.33;5.95;;;;;;;13.47;72.76;99498.36;1660810;86;21205;-64
2021/05/14 03:08:26;;;;;;;9.93;6.87;;;;;;;13.51;72.54;99501.47;1661008;86;21247;-65
2021/05/14 03:10:54;;;;;;;9.88;6.17;;;;;;;13.53;72.38;99496.56;1690702;85;21344;-65
2021/05/14 03:13:22;;;;;;;9.88;6.22;;;;;;;13.55;72.10;99498.53;1703090;82;21065;-65
2021/05/14 03:15:49;;;;;;;12.33;6.97;;;;;;;13.58;71.89;99503.02;1703283;84;21315;-64
2021/05/14 03:18:18;;;;;;;15.00;7.00;;;;;;;13.61;71.75;99500.33;1703250;84;21062;-65
2021/05/14 03:20:45;;;;;;;11.53;6.60;;;;;;;13.64;71.51;99496.56;1703226;84;21240;-64
2021/05/14 03:23:13;;;;;;;10.82;6.47;;;;;;;13.71;71.21;99495.63;1703166;84;21060;-63
2021/05/14 03:25:40;;;;;;;9.48;6.20;;;;;;;13.75;71.01;99490.78;1703085;84;21333;-64
2021/05/14 03:28:08;;;;;;;16.37;7.35;;;;;;;13.79;70.80;99498.02;1703063;84;21089;-65
2021/05/14 03:30:35;;;;;;;11.65;7.40;;;;;;;13.81;70.67;99494.48;1703204;84;21352;-65
2021/05/14 03:33:03;;;;;;;12.25;8.10;;;;;;;13.83;70.51;99503.34;1703101;84;21065;-65
2021/05/14 03:35:30;;;;;;;13.38;7.50;;;;;;;13.85;70.37;99506.69;1703170;84;21049;-65
2021/05/14 03:37:58;;;;;;;11.48;7.33;;;;;;;13.85;70.29;99498.43;1703181;84;21228;-65
2021/05/14 03:42:58;;;;;;;16.75;7.60;;;;;;;13.89;70.24;99496.33;1703211;84;21061;-65
2021/05/14 03:45:26;;;;;;;13.40;7.35;;;;;;;13.92;70.05;99504.65;1703079;84;21280;-65
2021/05/14 03:47:57;;;;;;;11.25;6.78;;;;;;;13.92;69.99;99497.77;1673573;85;21098;-65
2021/05/14 03:50:32;;;;;;;11.55;6.83;;;;;;;13.93;69.98;99500.28;1703071;84;21101;-65
2021/05/14 03:53:02;;;;;;;10.03;6.92;;;;;;;13.94;69.93;99497.81;1703074;84;21072;-67
2021/05/14 03:55:29;;;;;;;13.40;7.70;;;;;;;14.00;69.82;99496.55;1673639;85;21396;-64
2021/05/14 03:57:57;;;;;;;21.60;7.95;;;;;;;14.02;69.74;99505.41;1703185;84;21113;-64
2021/05/14 04:00:26;;;;;;;13.15;8.25;;;;;;;14.02;69.63;99502.12;1703171;84;21366;-64
2021/05/14 04:02:55;;;;;;;13.18;7.70;;;;;;;14.03;69.52;99510.68;1647036;87;21209;-64
2021/05/14 04:05:23;;;;;;;11.43;6.60;;;;;;;14.04;69.53;99498.58;1645701;87;21186;-64
2021/05/14 04:07:50;;;;;;;15.83;8.70;;;;;;;14.05;69.39;99507.14;1672855;85;21114;-64
2021/05/14 04:11:07;;;;;;;14.00;7.75;;;;;;;14.07;69.36;99502.23;1672877;85;21356;-65
2021/05/14 04:15:33;;;;;;;12.35;7.45;;;;;;;14.14;69.33;99501.55;1703190;84;21781;-64
2021/05/14 04:18:01;;;;;;;12.50;7.15;;;;;;;14.19;69.33;99507.71;1646889;87;21126;-65
2021/05/14 04:20:28;;;;;;;15.35;6.58;;;;;;;14.23;69.11;99500.64;1673342;85;21086;-64
2021/05/14 04:22:56;;;;;;;12.78;6.92;;;;;;;14.29;68.83;99495.52;1703268;84;21062;-64
2021/05/14 04:25:24;;;;;;;11.63;7.05;;;;;;;14.36;68.71;99500.93;1703094;84;21298;-65
2021/05/14 04:27:51;;;;;;;17.50;7.95;;;;;;;14.40;68.56;99496.06;1673386;85;21245;-65
2021/05/14 04:30:19;;;;;;;17.42;7.78;;;;;;;14.45;68.32;99494.82;1703321;84;21341;-66
2021/05/14 04:32:47;;;;;;;12.18;7.97;;;;;;;14.51;68.13;99490.24;1703191;84;21098;-65
2021/05/14 04:35:14;;;;;;;10.90;7.33;;;;;;;14.56;68.05;99495.86;1673517;85;21366;-65
2021/05/14 04:37:42;;;;;;;11.30;7.00;;;;;;;14.59;68.02;99487.93;1703145;84;21232;-65
2021/05/14 04:40:11;;;;;;;10.90;7.20;;;;;;;14.63;67.76;99484.14;1703263;84;21275;-65
2021/05/14 04:42:39;;;;;;;12.33;7.25;;;;;;;14.65;67.80;99483.34;1673310;85;21079;-64
2021/05/14 04:45:09;;;;;;;14.75;8.98;;;;;;;14.69;67.76;99491.97;1702891;84;21193;-64
2021/05/14 04:47:36;;;;;;;13.45;8.43;;;;;;;14.71;67.71;99478.77;1703207;84;21194;-65
2021/05/14 04:50:05;;;;;;;11.50;7.95;;;;;;;14.74;67.57;99487.38;1673256;85;21106;-66
2021/05/14 04:52:33;;;;;;;13.83;8.25;;;;;;;14.78;67.30;99484.97;1703227;84;21171;-67
2021/05/14 04:55:00;;;;;;;10.80;6.80;;;;;;;14.82;67.07;99485.60;1703175;84;21097;-65
2021/05/14 04:57:28;;;;;;;12.75;6.33;;;;;;;14.87;66.74;99480.72;1673274;85;21066;-65
2021/05/14 04:59:55;;;;;;;11.68;6.70;;;;;;;14.94;66.61;99484.16;1703078;84;21189;-64
2021/05/14 05:02:22;;;;;;;11.63;7.05;;;;;;;15.00;66.52;99483.73;1702982;84;21424;-65
2021/05/14 05:04:50;;;;;;;10.25;6.85;;;;;;;15.04;66.31;99482.99;1673624;85;21070;-65
2021/05/14 05:07:18;;;;;;;12.70;7.22;;;;;;;15.08;66.01;99475.05;1703034;84;21384;-65
2021/05/14 05:09:47;;;;;;;10.78;6.85;;;;;;;15.11;65.84;99478.14;1703052;84;21057;-65
2021/05/14 05:12:14;;;;;;;11.78;6.47;;;;;;;15.15;65.45;99476.56;1703182;82;21104;-65
2021/05/14 05:14:43;;;;;;;12.68;7.00;;;;;;;15.19;65.20;99469.45;1703202;84;21296;-65
2021/05/14 05:17:12;;;;;;;9.98;5.87;;;;;;;15.25;64.96;99475.89;1702915;84;21773;-66
2021/05/14 05:19:39;;;;;;;10.08;6.00;;;;;;;15.33;64.53;99461.67;1703221;84;21049;-65
2021/05/14 05:22:07;;;;;;;9.93;6.10;;;;;;;15.37;64.13;99462.84;1703058;84;21074;-65
2021/05/14 05:24:34;;;;;;;12.23;6.50;;;;;;;15.40;63.78;99460.13;1703204;84;21080;-65
2021/05/14 05:27:02;;;;;;;15.72;7.00;;;;;;;15.45;63.64;99457.44;1703176;84;21319;-65
2021/05/14 05:29:30;;;;;;;10.88;6.35;;;;;;;15.48;63.43;99461.07;1703066;84;21050;-65
2021/05/14 05:31:58;;;;;;;9.58;5.95;;;;;;;15.52;63.29;99453.41;1703117;84;21347;-65
2021/05/14 05:34:27;;;;;;;10.48;5.60;;;;;;;15.56;63.25;99452.36;1703244;84;21054;-65
2021/05/14 05:36:56;;;;;;;11.33;5.92;;;;;;;15.58;63.01;99459.05;1703090;84;21034;-65
2021/05/14 05:39:23;;;;;;;14.07;6.35;;;;;;;15.59;62.82;99453.81;1703190;84;21094;-64
2021/05/14 05:41:51;;;;;;;8.95;5.85;;;;;;;15.62;62.64;99451.95;1703096;84;21353;-65
2021/05/14 05:44:19;;;;;;;12.18;5.83;;;;;;;15.67;62.65;99456.17;1703078;84;21073;-65
2021/05/14 05:46:47;;;;;;;13.48;5.85;;;;;;;15.73;62.64;99448.25;1703222;84;21081;-65
2021/05/14 05:49:14;;;;;;;9.53;5.72;;;;;;;15.78;62.39;99444.17;1703072;84;21057;-64
2021/05/14 05:51:41;;;;;;;10.45;6.17;;;;;;;15.82;62.17;99448.94;1703294;84;21064;-65
2021/05/14 05:54:09;;;;;;;13.22;6.12;;;;;;;15.83;61.80;99442.32;1703048;84;21088;-66
2021/05/14 05:56:37;;;;;;;14.10;6.58;;;;;;;15.85;61.52;99448.97;1703130;84;21049;-65
2021/05/14 05:59:06;;;;;;;14.00;6.83;;;;;;;15.88;61.53;99444.31;1703209;84;21085;-65
2021/05/14 06:01:34;;;;;;;12.65;6.70;;;;;;;15.95;61.55;99453.25;1703155;84;21054;-64
2021/05/14 06:04:02;;;;;;;12.73;7.35;;;;;;;16.00;61.24;99451.94;1703241;84;21180;-65
2021/05/14 06:06:29;;;;;;;13.48;6.75;;;;;;;16.06;61.23;99439.02;1703005;84;21026;-65
2021/05/14 06:08:57;;;;;;;13.83;7.05;;;;;;;16.14;61.17;99433.88;1703102;84;21334;-65
2021/05/14 06:11:24;;;;;;;15.63;6.92;;;;;;;16.22;61.10;99431.75;1703353;84;21050;-65
2021/05/14 06:13:52;;;;;;;14.10;6.40;;;;;;;16.28;60.56;99433.52;1702883;82;21199;-65
2021/05/14 06:16:20;;;;;;;13.70;6.62;;;;;;;16.33;60.47;99433.58;1702978;84;21298;-65
2021/05/14 06:18:54;;;;;;;12.28;6.28;;;;;;;16.37;60.35;99423.12;1703183;84;21052;-65
2021/05/14 06:21:16;;;;;;;13.58;5.30;;;;;;;16.45;60.25;99417.67;1702459;84;21096;-66
2021/05/14 06:23:44;;;;;;;9.15;5.22;;;;;;;16.52;60.04;99421.06;1673429;85;21203;-65
2021/05/14 06:26:12;;;;;;;10.18;5.35;;;;;;;16.63;59.62;99424.22;1702986;84;21042;-65
2021/05/14 06:28:39;;;;;;;13.43;5.90;;;;;;;16.71;59.40;99421.02;1703513;84;21093;-65
2021/05/14 06:31:07;;;;;;;10.38;5.20;;;;;;;16.82;59.08;99423.33;1673325;85;21330;-65
2021/05/14 06:33:35;;;;;;;12.28;5.58;;;;;;;16.91;58.67;99424.55;1703054;84;21045;-66
2021/05/14 06:36:04;;;;;;;10.48;5.80;;;;;;;16.98;58.67;99421.56;1702984;84;21061;-64
2021/05/14 06:38:31;;;;;;;10.68;4.92;;;;;;;17.09;58.71;99428.86;1673268;85;21090;-65
2021/05/14 06:41:00;;;;;;;13.50;6.58;;;;;;;17.19;58.52;99417.86;1702918;84;21323;-64
2021/05/14 06:43:28;;;;;;;12.60;6.40;;;;;;;17.30;58.47;99410.47;1702971;84;21325;-65
2021/05/14 06:45:55;;;;;;;13.18;5.72;;;;;;;17.41;57.98;99411.66;1646919;87;21082;-65
2021/05/14 06:48:22;;;;;;;10.90;5.35;;;;;;;17.53;57.71;99417.00;1645462;87;21142;-65
2021/05/14 06:50:50;;;;;;;10.08;5.90;;;;;;;17.65;57.40;99410.73;1673408;85;21074;-65
2021/05/14 06:53:18;;;;;;;14.40;5.90;;;;;;;17.76;57.02;99414.42;1703017;84;21302;-65
2021/05/14 06:55:46;;;;;;;8.55;4.85;;;;;;;17.81;56.87;99410.29;1703063;84;21086;-65
2021/05/14 06:58:14;;;;;;;10.35;5.00;;;;;;;17.88;56.43;99410.88;1673315;85;21338;-64
2021/05/14 07:00:42;;;;;;;8.85;4.92;;;;;;;17.92;55.55;99405.63;1703224;84;21315;-66
2021/05/14 07:03:10;;;;;;;13.30;5.25;;;;;;;17.97;55.40;99405.10;1703145;84;21894;-66
2021/05/14 07:05:37;;;;;;;13.55;5.53;;;;;;;18.05;55.29;99396.81;1673408;85;21308;-66
2021/05/14 07:08:05;;;;;;;16.05;6.33;;;;;;;18.12;54.94;99397.40;1703160;84;21317;-66
2021/05/14 07:10:32;;;;;;;11.10;5.62;;;;;;;18.19;54.72;99397.14;1703050;84;21069;-65
2021/05/14 07:12:59;;;;;;;10.20;5.42;;;;;;;18.25;54.48;99388.60;1706553;83;21461;-65
2021/05/14 07:15:29;;;;;;;9.53;5.47;;;;;;;18.33;54.43;99392.78;1716789;83;21764;-65
2021/05/14 07:17:59;;;;;;;12.33;5.30;;;;;;;18.43;53.92;99391.42;1716819;82;21082;-65
2021/05/14 07:20:27;;;;;;;8.05;4.65;;;;;;;18.50;53.71;99385.61;1713310;82;21170;-67
2021/05/14 07:22:55;;;;;;;9.90;4.70;;;;;;;18.57;53.40;99379.24;1715959;83;21034;-65
2021/05/14 07:25:24;;;;;;;6.97;4.95;;;;;;;18.65;52.90;99385.11;1715085;83;21017;-66
2021/05/14 07:27:51;;;;;;;10.55;4.58;;;;;;;18.72;52.33;99386.78;1715534;83;21029;-65
2021/05/14 07:30:20;;;;;;;11.53;4.83;;;;;;;18.83;52.42;99391.23;1715361;83;21852;-65
2021/05/14 07:32:47;;;;;;;13.98;5.60;;;;;;;18.93;52.06;99382.94;1715615;83;21052;-65
2021/05/14 07:35:15;;;;;;;10.88;4.83;;;;;;;18.98;51.74;99387.11;1712028;83;21232;-65
2021/05/14 07:37:45;;;;;;;9.00;4.22;;;;;;;19.00;51.67;99380.16;1708818;83;21129;-65
2021/05/14 07:40:13;;;;;;;11.00;4.25;;;;;;;19.06;51.24;99381.55;1710933;83;21239;-67
2021/05/14 07:42:40;;;;;;;6.83;4.05;;;;;;;19.12;51.03;99381.27;1697285;83;21098;-65
2021/05/14 07:45:09;;;;;;;11.80;4.95;;;;;;;19.16;50.53;99376.83;1714573;83;21327;-65
2021/05/14 07:47:38;;;;;;;12.25;5.10;;;;;;;19.23;50.69;99380.70;1710730;83;21157;-65
2021/05/14 07:50:07;;;;;;;16.80;5.47;;;;;;;19.31;50.67;99387.92;1717574;82;21464;-66
2021/05/14 07:52:35;;;;;;;15.05;5.78;;;;;;;19.37;50.20;99381.80;1713287;82;21062;-65
2021/05/14 07:55:05;;;;;;;11.63;4.50;;;;;;;19.41;49.61;99383.45;1715568;83;21041;-67
2021/05/14 07:57:32;;;;;;;9.05;4.40;;;;;;;19.44;49.51;99380.95;1714962;82;21056;-68
2021/05/14 08:00:00;;;;;;;5.72;4.47;;;;;;;19.53;49.55;99382.66;1710108;83;21259;-67
2021/05/14 08:02:27;;;;;;;8.00;4.50;;;;;;;19.69;48.96;99380.67;1682502;84;21172;-68
2021/05/14 08:04:54;;;;;;;9.48;4.53;;;;;;;19.79;49.27;99381.47;1719586;82;21197;-69
2021/05/14 08:07:22;;;;;;;7.92;4.47;;;;;;;19.90;49.05;99389.22;1716928;83;21109;-68
2021/05/14 08:09:49;;;;;;;8.75;4.70;;;;;;;19.92;48.72;99387.82;1704943;83;21097;-67
2021/05/14 08:12:17;;;;;;;8.00;4.17;;;;;;;19.92;48.75;99387.82;1703084;83;21169;-67
2021/05/14 08:14:46;;;;;;;14.65;5.65;;;;;;;19.92;48.35;99393.94;1715460;83;21110;-65
2021/05/14 08:17:14;;;;;;;18.05;4.90;;;;;;;19.91;48.18;99390.88;1715670;83;21638;-67
2021/05/14 08:19:42;;;;;;;7.15;4.10;;;;;;;19.91;48.00;99388.94;1716851;83;21439;-68
2021/05/14 08:22:10;;;;;;;6.87;3.95;;;;;;;19.91;47.83;99381.98;1716838;83;21324;-66
2021/05/14 08:24:37;;;;;;;9.65;4.42;;;;;;;19.91;47.82;99379.77;1701575;83;21332;-68
2021/05/14 08:27:07;;;;;;;9.75;5.42;;;;;;;19.90;47.63;99379.48;1696800;82;21141;-66
2021/05/14 08:29:35;;;;;;;6.90;4.70;;;;;;;19.86;48.09;99374.22;1706601;83;21330;-68
2021/05/14 08:32:02;;;;;;;9.68;5.10;;;;;;;19.82;48.35;99376.73;1715562;83;21839;-67
2021/05/14 08:34:30;;;;;;;9.25;5.17;;;;;;;19.79;48.71;99372.30;1697247;83;21332;-67
2021/05/14 08:36:57;;;;;;;8.38;4.87;;;;;;;19.80;48.82;99378.97;1701045;83;21078;-70
2021/05/14 08:39:26;;;;;;;12.28;5.03;;;;;;;19.80;48.99;99381.75;1711910;83;21055;-67
2021/05/14 08:41:54;;;;;;;9.18;4.65;;;;;;;19.82;49.12;99382.85;1716694;82;21087;-67
2021/05/14 08:44:23;;;;;;;9.70;4.78;;;;;;;19.86;48.93;99386.17;1746070;81;21362;-66
2021/05/14 08:46:51;;;;;;;8.40;5.05;;;;;;;19.85;48.75;99384.51;1741657;82;21275;-68
2021/05/14 08:49:19;;;;;;;9.53;5.90;;;;;;;19.87;48.91;99386.45;1746781;82;21787;-64
2021/05/14 08:51:46;;;;;;;9.80;4.97;;;;;;;19.89;49.41;99391.73;1746771;82;21253;-66
2021/05/14 08:54:15;;;;;;;8.98;5.15;;;;;;;19.94;49.25;99393.09;1747079;82;21079;-68
2021/05/14 08:56:44;;;;;;;7.65;4.67;;;;;;;19.94;49.16;99399.48;1734313;82;21063;-68
2021/05/14 08:59:11;;;;;;;8.28;4.67;;;;;;;19.93;49.24;99396.44;1697396;83;21954;-66
2021/05/14 09:01:39;;;;;;;9.05;4.78;;;;;;;19.92;49.46;99393.38;1687857;85;21338;-66
2021/05/14 09:04:10;;;;;;;11.43;5.33;;;;;;;19.95;49.64;99393.38;1688088;84;21110;-65
2021/05/14 09:06:40;;;;;;;7.37;5.00;;;;;;;19.99;49.40;99388.91;1718837;82;21162;-65
2021/05/14 09:09:11;;;;;;;12.65;4.55;;;;;;;20.04;49.13;99394.44;1721746;82;21316;-66
2021/05/14 09:11:52;;;;;;;9.10;4.78;;;;;;;20.06;48.76;99394.16;1710620;82;21852;-65
2021/05/14 09:14:45;;;;;;;8.15;4.67;;;;;;;20.07;49.11;99397.22;1683977;83;21080;-65
2021/05/14 09:17:14;;;;;;;8.73;5.50;;;;;;;20.13;49.12;99398.30;1716481;82;21256;-68
2021/05/14 09:19:46;;;;;;;9.80;4.70;;;;;;;20.20;48.96;99390.51;1666241;85;21133;-65
2021/05/14 09:22:25;;;;;;;8.78;4.95;;;;;;;20.28;48.98;99391.86;1665435;85;21307;-64
2021/05/14 09:25:02;;;;;;;8.08;5.05;;;;;;;20.37;49.10;99389.31;1671071;84;21337;-66
2021/05/14 09:27:34;;;;;;;7.10;4.47;;;;;;;20.46;48.78;99382.89;1672449;85;21186;-64
2021/05/14 09:30:11;;;;;;;7.50;3.60;;;;;;;20.53;47.81;99386.73;1666583;85;21773;-64
2021/05/14 09:32:41;;;;;;;8.28;3.80;;;;;;;20.55;46.92;99382.55;1660366;85;21097;-69
2021/05/14 09:35:08;;;;;;;8.18;3.60;;;;;;;20.57;46.49;99389.22;1673196;85;21854;-64
2021/05/14 09:37:48;;;;;;;6.67;3.50;;;;;;;20.57;46.11;99392.83;1689383;83;21253;-64
2021/05/14 09:40:21;;;;;;;6.83;3.62;;;;;;;20.54;45.68;99386.45;1700455;84;21460;-66
2021/05/14 09:43:00;;;;;;;9.75;4.35;;;;;;;20.50;45.52;99380.36;1702268;84;21209;-65
2021/05/14 09:45:29;;;;;;;8.28;3.98;;;;;;;20.43;45.71;99374.28;1661004;85;21035;-64
2021/05/14 09:48:18;;;;;;;9.18;3.50;;;;;;;20.39;45.81;99379.59;1685206;82;21923;-64
2021/05/14 09:50:46;;;;;;;5.25;2.90;;;;;;;20.34;45.42;99373.19;1687521;83;21045;-61
2021/05/14 09:53:20;;;;;;;6.08;3.10;;;;;;;20.25;45.12;99363.22;1660990;84;21070;-62
2021/05/14 09:58:23;;;;;;;7.08;3.00;;;;;;;20.14;45.26;99362.97;1691682;83;21261;-63
2021/05/14 10:00:52;;;;;;;6.15;3.05;;;;;;;20.12;44.79;99361.04;1659876;85;21078;-64
2021/05/14 10:03:21;;;;;;;23.32;4.15;;;;;;;20.13;44.57;99357.97;1690171;84;21263;-63
2021/05/14 10:05:50;;;;;;;6.22;2.95;;;;;;;20.13;44.75;99352.97;1684341;84;21034;-63
2021/05/14 10:08:20;;;;;;;8.63;3.47;;;;;;;20.17;44.64;99350.75;1647309;85;21123;-62
2021/05/14 10:10:47;;;;;;;6.55;3.17;;;;;;;20.20;45.14;99352.95;1674295;85;21076;-63
2021/05/14 10:13:17;;;;;;;5.80;3.25;;;;;;;20.24;46.21;99358.78;1675949;84;21037;-63
2021/05/14 10:15:44;;;;;;;7.25;3.35;;;;;;;20.22;47.48;99370.75;1643331;86;21064;-64
2021/05/14 10:18:17;;;;;;;7.62;4.10;;;;;;;20.15;48.06;99371.03;1647814;86;21127;-63
2021/05/14 10:20:45;;;;;;;8.63;3.30;;;;;;;20.05;48.74;99369.69;1656257;86;21358;-65
2021/05/14 10:23:13;;;;;;;10.63;3.40;;;;;;;19.95;49.33;99375.30;1643495;84;21396;-60
2021/05/14 10:25:44;;;;;;;6.85;3.50;;;;;;;19.80;50.07;99372.02;1647741;86;21272;-67
2021/05/14 10:28:19;;;;;;;8.33;4.15;;;;;;;19.62;51.21;99378.19;1648296;84;21536;-64
2021/05/14 10:31:05;;;;;;;5.47;3.50;;;;;;;19.39;52.56;99383.73;1628059;86;21369;-67
2021/05/14 10:33:48;;;;;;;6.47;3.30;;;;;;;19.11;53.65;99383.77;1645772;86;21076;-63
2021/05/14 10:36:31;;;;;;;7.22;3.77;;;;;;;18.85;54.30;99380.13;1665535;85;21104;-62
2021/05/14 10:39:26;;;;;;;7.90;3.80;;;;;;;18.65;55.05;99380.12;1681956;83;21201;-63
2021/05/14 10:42:09;;;;;;;4.87;3.50;;;;;;;18.52;55.84;99381.45;1666870;86;21958;-61
2021/05/14 10:44:55;;;;;;;7.55;3.72;;;;;;;18.45;56.17;99385.05;1682884;84;21221;-67
2021/05/14 10:47:41;;;;;;;7.05;3.40;;;;;;;18.36;55.76;99388.08;1695069;83;21347;-62
2021/05/14 10:50:37;;;;;;;8.88;4.03;;;;;;;18.28;56.08;99390.83;1670152;85;21178;-63
2021/05/14 10:53:30;;;;;;;6.00;4.00;;;;;;;18.30;56.58;99387.78;1639048;86;21094;-62
2021/05/14 10:56:12;;;;;;;7.67;3.72;;;;;;;18.32;56.20;99389.73;1672718;84;21956;-63
2021/05/14 10:58:56;;;;;;;7.08;4.03;;;;;;;18.43;56.18;99391.42;1667970;84;21692;-66
2021/05/14 11:01:42;;;;;;;8.70;4.08;;;;;;;18.65;55.87;99395.38;1675833;83;21247;-64
2021/05/14 11:04:15;;;;;;;;;;;;;;;18.90;54.62;99390.44;1670057;86;21130;-62
2021/05/14 11:06:45;;;;;;;5.83;3.72;;;;;;;19.17;52.89;99385.98;1667686;86;20390;-65
2021/05/14 11:09:17;;;;;;;8.10;3.80;;;;;;;19.42;52.60;99385.13;1667459;86;21393;-64
2021/05/14 11:11:58;;;;;;;8.50;3.70;;;;;;;19.64;51.53;99377.36;1666523;86;21098;-65
2021/05/14 11:14:50;;;;;;;7.58;3.80;;;;;;;19.89;50.74;99384.22;1666190;84;21109;-66
2021/05/14 11:17:19;;;;;;;6.95;3.75;;;;;;;20.11;50.04;99377.45;1677233;85;21373;-63
2021/05/14 11:19:50;;;;;;;6.92;3.47;;;;;;;20.39;48.49;99378.72;1686984;85;21288;-70
2021/05/14 11:22:25;;;;;;;5.78;4.05;;;;;;;20.59;48.01;99374.45;1687202;83;21368;-66
2021/05/14 11:25:14;;;;;;;5.20;3.47;;;;;;;20.81;47.58;99372.66;1659488;86;21168;-66
2021/05/14 11:27:42;;;;;;;5.67;3.37;;;;;;;21.05;46.87;99372.17;1657595;85;21122;-68
2021/05/14 11:30:15;;;;;;;5.53;3.20;;;;;;;21.27;45.72;99376.47;1684294;85;21818;-68
2021/05/14 11:32:44;;;;;;;4.67;3.27;;;;;;;21.39;44.88;99372.73;1687327;85;21082;-67
2021/05/14 11:35:22;;;;;;;6.78;3.58;;;;;;;21.40;44.83;99366.03;1686158;85;21335;-67
2021/05/14 11:37:56;;;;;;;5.67;3.72;;;;;;;21.33;44.06;99362.20;1654941;84;21226;-65
2021/05/14 11:40:30;;;;;;;9.08;3.77;;;;;;;21.29;44.55;99351.93;1689046;83;21931;-68
2021/05/14 11:43:11;;;;;;;6.65;3.25;;;;;;;21.37;44.07;99354.08;1665868;83;21252;-66
2021/05/14 11:46:09;;;;;;;5.20;3.13;;;;;;;21.56;43.82;99349.45;1635712;86;22036;-65
2021/05/14 11:48:38;;;;;;;5.17;3.22;;;;;;;21.75;43.82;99347.55;1680632;85;22646;-70
2021/05/14 11:51:06;;;;;;;5.45;3.00;;;;;;;21.93;43.88;99347.89;1641339;86;21103;-66